sensor_id;sensor_type;location;lat;lon;timestamp;pressure;altitude;pressure_sealevel;temperature
70333;BMP280;57747;43.548;-5.704;2022-09-16T00:02:27;101747.25;;;20.96
70333;BMP280;57747;43.548;-5.704;2022-09-16T00:04:53;101746.09;;;21.06
70333;BMP280;57747;43.548;-5.704;2022-09-16T00:07:18;101741.19;;;20.91
70333;BMP280;57747;43.548;-5.704;2022-09-16T00:09:47;101738.75;;;20.98
70333;BMP280;57747;43.548;-5.704;2022-09-16T00:12:12;101739.69;;;21.02
70333;BMP280;57747;43.548;-5.704;2022-09-16T00:14:38;101743.97;;;21.12
70333;BMP280;57747;43.548;-5.704;2022-09-16T00:17:06;101740.00;;;21.00
70333;BMP280;57747;43.548;-5.704;2022-09-16T00:19:31;101747.13;;;21.22
70333;BMP280;57747;43.548;-5.704;2022-09-16T00:21:57;101752.75;;;21.17
70333;BMP280;57747;43.548;-5.704;2022-09-16T00:24:25;101747.47;;;20.82
70333;BMP280;57747;43.548;-5.704;2022-09-16T00:26:51;101747.78;;;20.90
70333;BMP280;57747;43.548;-5.704;2022-09-16T00:29:16;101748.81;;;21.06
70333;BMP280;57747;43.548;-5.704;2022-09-16T00:31:44;101756.22;;;20.97
70333;BMP280;57747;43.548;-5.704;2022-09-16T00:34:12;101750.69;;;20.84
70333;BMP280;57747;43.548;-5.704;2022-09-16T00:36:40;101756.59;;;20.87
70333;BMP280;57747;43.548;-5.704;2022-09-16T00:39:05;101764.16;;;20.81
70333;BMP280;57747;43.548;-5.704;2022-09-16T00:41:32;101759.78;;;20.89
70333;BMP280;57747;43.548;-5.704;2022-09-16T00:47:07;101762.91;;;20.70
70333;BMP280;57747;43.548;-5.704;2022-09-16T00:49:35;101761.31;;;20.69
70333;BMP280;57747;43.548;-5.704;2022-09-16T00:52:02;101768.69;;;20.59
70333;BMP280;57747;43.548;-5.704;2022-09-16T00:54:30;101762.13;;;20.60
70333;BMP280;57747;43.548;-5.704;2022-09-16T00:56:59;101763.06;;;20.64
70333;BMP280;57747;43.548;-5.704;2022-09-16T01:02:22;101762.44;;;20.59
70333;BMP280;57747;43.548;-5.704;2022-09-16T01:07:46;101755.09;;;20.51
70333;BMP280;57747;43.548;-5.704;2022-09-16T01:10:16;101757.16;;;20.62
70333;BMP280;57747;43.548;-5.704;2022-09-16T01:12:47;101758.59;;;20.60
70333;BMP280;57747;43.548;-5.704;2022-09-16T01:15:14;101756.31;;;20.62
70333;BMP280;57747;43.548;-5.704;2022-09-16T01:31:14;101756.59;;;19.96
70333;BMP280;57747;43.548;-5.704;2022-09-16T01:47:22;101761.19;;;20.56
70333;BMP280;57747;43.548;-5.704;2022-09-16T01:49:59;101771.13;;;20.52
70333;BMP280;57747;43.548;-5.704;2022-09-16T01:55:07;101757.50;;;20.52
70333;BMP280;57747;43.548;-5.704;2022-09-16T02:00:13;101764.88;;;20.52
70333;BMP280;57747;43.548;-5.704;2022-09-16T02:02:53;101758.13;;;20.40
70333;BMP280;57747;43.548;-5.704;2022-09-16T02:05:33;101767.47;;;20.31
70333;BMP280;57747;43.548;-5.704;2022-09-16T02:08:10;101769.72;;;20.20
70333;BMP280;57747;43.548;-5.704;2022-09-16T02:10:58;101766.19;;;20.10
70333;BMP280;57747;43.548;-5.704;2022-09-16T02:13:49;101769.84;;;20.06
70333;BMP280;57747;43.548;-5.704;2022-09-16T02:16:23;101764.41;;;20.06
70333;BMP280;57747;43.548;-5.704;2022-09-16T02:18:55;101769.06;;;19.97
70333;BMP280;57747;43.548;-5.704;2022-09-16T02:21:27;101769.88;;;20.23
70333;BMP280;57747;43.548;-5.704;2022-09-16T02:23:59;101769.72;;;20.20
70333;BMP280;57747;43.548;-5.704;2022-09-16T02:26:28;101762.66;;;20.19
70333;BMP280;57747;43.548;-5.704;2022-09-16T02:28:55;101766.84;;;20.25
70333;BMP280;57747;43.548;-5.704;2022-09-16T02:31:27;101758.97;;;20.06
70333;BMP280;57747;43.548;-5.704;2022-09-16T02:34:02;101760.09;;;20.05
70333;BMP280;57747;43.548;-5.704;2022-09-16T02:36:29;101763.81;;;20.09
70333;BMP280;57747;43.548;-5.704;2022-09-16T02:39:01;101765.06;;;20.12
70333;BMP280;57747;43.548;-5.704;2022-09-16T02:41:29;101759.94;;;20.01
70333;BMP280;57747;43.548;-5.704;2022-09-16T02:43:55;101767.00;;;20.02
70333;BMP280;57747;43.548;-5.704;2022-09-16T02:46:30;101766.81;;;19.73
70333;BMP280;57747;43.548;-5.704;2022-09-16T02:55:05;101764.75;;;20.13
70333;BMP280;57747;43.548;-5.704;2022-09-16T02:57:33;101762.19;;;19.90
70333;BMP280;57747;43.548;-5.704;2022-09-16T03:00:02;101762.19;;;19.90
70333;BMP280;57747;43.548;-5.704;2022-09-16T03:02:28;101769.25;;;20.09
70333;BMP280;57747;43.548;-5.704;2022-09-16T03:04:53;101760.09;;;20.14
70333;BMP280;57747;43.548;-5.704;2022-09-16T03:07:19;101764.13;;;20.16
70333;BMP280;57747;43.548;-5.704;2022-09-16T03:09:46;101762.03;;;19.96
70333;BMP280;57747;43.548;-5.704;2022-09-16T03:15:31;101757.22;;;20.01
70333;BMP280;57747;43.548;-5.704;2022-09-16T03:21:06;101750.81;;;20.23
70333;BMP280;57747;43.548;-5.704;2022-09-16T03:31:56;101740.56;;;20.03
70333;BMP280;57747;43.548;-5.704;2022-09-16T03:37:04;101746.31;;;20.36
70333;BMP280;57747;43.548;-5.704;2022-09-16T03:39:31;101737.00;;;20.46
70333;BMP280;57747;43.548;-5.704;2022-09-16T03:42:02;101738.31;;;20.14
70333;BMP280;57747;43.548;-5.704;2022-09-16T03:44:34;101740.25;;;20.22
70333;BMP280;57747;43.548;-5.704;2022-09-16T03:47:00;101736.59;;;20.00
70333;BMP280;57747;43.548;-5.704;2022-09-16T03:49:28;101742.66;;;20.23
70333;BMP280;57747;43.548;-5.704;2022-09-16T03:51:55;101740.56;;;20.12
70333;BMP280;57747;43.548;-5.704;2022-09-16T03:54:25;101738.97;;;20.10
70333;BMP280;57747;43.548;-5.704;2022-09-16T03:56:51;101747.28;;;20.05
70333;BMP280;57747;43.548;-5.704;2022-09-16T04:01:43;101738.97;;;20.02
70333;BMP280;57747;43.548;-5.704;2022-09-16T04:04:09;101738.66;;;20.03
70333;BMP280;57747;43.548;-5.704;2022-09-16T04:06:36;101730.63;;;20.07
70333;BMP280;57747;43.548;-5.704;2022-09-16T04:09:03;101737.34;;;19.92
70333;BMP280;57747;43.548;-5.704;2022-09-16T04:11:30;101741.38;;;19.95
70333;BMP280;57747;43.548;-5.704;2022-09-16T04:13:57;101730.00;;;20.01
70333;BMP280;57747;43.548;-5.704;2022-09-16T04:16:24;101733.06;;;20.17
70333;BMP280;57747;43.548;-5.704;2022-09-16T04:18:50;101738.16;;;20.10
70333;BMP280;57747;43.548;-5.704;2022-09-16T04:21:16;101738.16;;;20.19
70333;BMP280;57747;43.548;-5.704;2022-09-16T04:23:42;101729.38;;;20.04
70333;BMP280;57747;43.548;-5.704;2022-09-16T04:26:09;101741.06;;;20.05
70333;BMP280;57747;43.548;-5.704;2022-09-16T04:28:34;101736.06;;;19.98
70333;BMP280;57747;43.548;-5.704;2022-09-16T04:31:05;101734.47;;;19.97
70333;BMP280;57747;43.548;-5.704;2022-09-16T04:33:33;101739.63;;;20.07
70333;BMP280;57747;43.548;-5.704;2022-09-16T04:38:29;101732.72;;;20.10
70333;BMP280;57747;43.548;-5.704;2022-09-16T04:41:02;101729.19;;;20.09
70333;BMP280;57747;43.548;-5.704;2022-09-16T04:43:31;101726.19;;;20.02
70333;BMP280;57747;43.548;-5.704;2022-09-16T04:45:59;101732.88;;;20.14
70333;BMP280;57747;43.548;-5.704;2022-09-16T04:48:25;101731.59;;;20.20
70333;BMP280;57747;43.548;-5.704;2022-09-16T04:50:52;101731.75;;;19.97
70333;BMP280;57747;43.548;-5.704;2022-09-16T04:53:18;101721.69;;;19.98
70333;BMP280;57747;43.548;-5.704;2022-09-16T04:55:45;101727.44;;;19.96
70333;BMP280;57747;43.548;-5.704;2022-09-16T04:58:11;101725.84;;;20.04
70333;BMP280;57747;43.548;-5.704;2022-09-16T05:00:39;101726.81;;;20.08
70333;BMP280;57747;43.548;-5.704;2022-09-16T05:03:06;101733.06;;;20.17
70333;BMP280;57747;43.548;-5.704;2022-09-16T05:05:31;101730.00;;;20.10
70333;BMP280;57747;43.548;-5.704;2022-09-16T05:08:00;101731.28;;;20.21
70333;BMP280;57747;43.548;-5.704;2022-09-16T05:10:25;101725.03;;;20.12
70333;BMP280;57747;43.548;-5.704;2022-09-16T05:12:53;101727.63;;;20.08
70333;BMP280;57747;43.548;-5.704;2022-09-16T05:15:21;101724.88;;;20.26
70333;BMP280;57747;43.548;-5.704;2022-09-16T05:17:46;101734.00;;;20.30
70333;BMP280;57747;43.548;-5.704;2022-09-16T05:20:12;101722.75;;;20.32
70333;BMP280;57747;43.548;-5.704;2022-09-16T05:22:38;101736.72;;;20.30
70333;BMP280;57747;43.548;-5.704;2022-09-16T05:25:04;101736.72;;;20.30
70333;BMP280;57747;43.548;-5.704;2022-09-16T05:27:30;101739.56;;;20.42
70333;BMP280;57747;43.548;-5.704;2022-09-16T05:29:59;101746.47;;;20.40
70333;BMP280;57747;43.548;-5.704;2022-09-16T05:32:24;101746.66;;;20.35
70333;BMP280;57747;43.548;-5.704;2022-09-16T05:34:50;101738.16;;;20.27
70333;BMP280;57747;43.548;-5.704;2022-09-16T05:37:16;101738.34;;;20.31
70333;BMP280;57747;43.548;-5.704;2022-09-16T05:39:44;101744.53;;;20.32
70333;BMP280;57747;43.548;-5.704;2022-09-16T05:42:10;101745.06;;;20.25
70333;BMP280;57747;43.548;-5.704;2022-09-16T05:44:35;101741.50;;;20.24
70333;BMP280;57747;43.548;-5.704;2022-09-16T05:47:01;101749.22;;;20.31
70333;BMP280;57747;43.548;-5.704;2022-09-16T05:49:26;101747.25;;;20.32
70333;BMP280;57747;43.548;-5.704;2022-09-16T05:51:52;101754.81;;;20.35
70333;BMP280;57747;43.548;-5.704;2022-09-16T05:54:40;101755.13;;;19.89
70333;BMP280;57747;43.548;-5.704;2022-09-16T05:57:06;101757.06;;;19.89
70333;BMP280;57747;43.548;-5.704;2022-09-16T05:59:33;101760.72;;;20.10
70333;BMP280;57747;43.548;-5.704;2022-09-16T06:01:59;101755.44;;;20.14
70333;BMP280;57747;43.548;-5.704;2022-09-16T06:04:25;101761.25;;;20.13
70333;BMP280;57747;43.548;-5.704;2022-09-16T06:06:50;101761.56;;;20.02
70333;BMP280;57747;43.548;-5.704;2022-09-16T06:09:19;101768.56;;;19.86
70333;BMP280;57747;43.548;-5.704;2022-09-16T06:11:50;101771.94;;;19.83
70333;BMP280;57747;43.548;-5.704;2022-09-16T06:14:17;101774.28;;;19.58
70333;BMP280;57747;43.548;-5.704;2022-09-16T06:16:54;101782.88;;;19.43
70333;BMP280;57747;43.548;-5.704;2022-09-16T06:19:20;101781.00;;;19.61
70333;BMP280;57747;43.548;-5.704;2022-09-16T06:21:46;101784.16;;;19.05
70333;BMP280;57747;43.548;-5.704;2022-09-16T06:24:17;101790.44;;;19.14
70333;BMP280;57747;43.548;-5.704;2022-09-16T06:26:44;101789.41;;;19.33
70333;BMP280;57747;43.548;-5.704;2022-09-16T06:29:14;101781.59;;;19.31
70333;BMP280;57747;43.548;-5.704;2022-09-16T06:31:42;101779.06;;;19.44
70333;BMP280;57747;43.548;-5.704;2022-09-16T06:34:13;101780.53;;;19.50
70333;BMP280;57747;43.548;-5.704;2022-09-16T06:36:39;101789.81;;;19.58
70333;BMP280;57747;43.548;-5.704;2022-09-16T06:39:12;101784.75;;;19.74
70333;BMP280;57747;43.548;-5.704;2022-09-16T06:41:38;101783.00;;;19.78
70333;BMP280;57747;43.548;-5.704;2022-09-16T06:44:04;101787.59;;;19.77
70333;BMP280;57747;43.548;-5.704;2022-09-16T06:46:31;101790.63;;;19.67
70333;BMP280;57747;43.548;-5.704;2022-09-16T06:48:57;101795.28;;;19.75
70333;BMP280;57747;43.548;-5.704;2022-09-16T06:56:35;101788.25;;;19.83
70333;BMP280;57747;43.548;-5.704;2022-09-16T06:59:03;101796.63;;;19.38
70333;BMP280;57747;43.548;-5.704;2022-09-16T07:01:32;101796.50;;;19.51
70333;BMP280;57747;43.548;-5.704;2022-09-16T07:04:01;101791.91;;;19.69
70333;BMP280;57747;43.548;-5.704;2022-09-16T07:06:28;101791.72;;;19.57
70333;BMP280;57747;43.548;-5.704;2022-09-16T07:08:56;101802.16;;;19.55
70333;BMP280;57747;43.548;-5.704;2022-09-16T07:11:23;101798.38;;;19.42
70333;BMP280;57747;43.548;-5.704;2022-09-16T07:13:49;101800.00;;;19.43
70333;BMP280;57747;43.548;-5.704;2022-09-16T07:16:18;101805.09;;;19.36
70333;BMP280;57747;43.548;-5.704;2022-09-16T07:18:44;101807.84;;;19.45
70333;BMP280;57747;43.548;-5.704;2022-09-16T07:21:18;101811.28;;;19.68
70333;BMP280;57747;43.548;-5.704;2022-09-16T07:23:44;101818.91;;;19.57
70333;BMP280;57747;43.548;-5.704;2022-09-16T07:26:15;101814.69;;;19.42
70333;BMP280;57747;43.548;-5.704;2022-09-16T07:28:42;101805.50;;;19.69
70333;BMP280;57747;43.548;-5.704;2022-09-16T07:31:12;101813.75;;;19.96
70333;BMP280;57747;43.548;-5.704;2022-09-16T07:33:41;101820.31;;;20.03
70333;BMP280;57747;43.548;-5.704;2022-09-16T07:36:09;101819.34;;;19.99
70333;BMP280;57747;43.548;-5.704;2022-09-16T07:38:39;101816.94;;;20.15
70333;BMP280;57747;43.548;-5.704;2022-09-16T07:41:23;101811.34;;;19.94
70333;BMP280;57747;43.548;-5.704;2022-09-16T07:43:50;101821.13;;;20.04
70333;BMP280;57747;43.548;-5.704;2022-09-16T07:46:20;101818.25;;;20.00
70333;BMP280;57747;43.548;-5.704;2022-09-16T07:48:47;101831.53;;;20.28
70333;BMP280;57747;43.548;-5.704;2022-09-16T07:51:22;101827.03;;;20.41
70333;BMP280;57747;43.548;-5.704;2022-09-16T07:53:52;101829.44;;;20.51
70333;BMP280;57747;43.548;-5.704;2022-09-16T07:56:22;101837.09;;;20.58
70333;BMP280;57747;43.548;-5.704;2022-09-16T07:58:50;101839.06;;;20.48
70333;BMP280;57747;43.548;-5.704;2022-09-16T08:01:16;101833.44;;;20.36
70333;BMP280;57747;43.548;-5.704;2022-09-16T08:03:43;101833.78;;;20.52
70333;BMP280;57747;43.548;-5.704;2022-09-16T08:06:18;101836.31;;;20.57
70333;BMP280;57747;43.548;-5.704;2022-09-16T08:08:50;101834.72;;;20.65
70333;BMP280;57747;43.548;-5.704;2022-09-16T08:11:19;101830.72;;;20.54
70333;BMP280;57747;43.548;-5.704;2022-09-16T08:13:48;101828.63;;;20.42
70333;BMP280;57747;43.548;-5.704;2022-09-16T08:16:16;101838.41;;;20.60
70333;BMP280;57747;43.548;-5.704;2022-09-16T08:18:43;101842.38;;;20.80
70333;BMP280;57747;43.548;-5.704;2022-09-16T08:21:14;101844.50;;;20.48
70333;BMP280;57747;43.548;-5.704;2022-09-16T08:23:40;101839.38;;;20.38
70333;BMP280;57747;43.548;-5.704;2022-09-16T08:26:09;101853.16;;;20.24
70333;BMP280;57747;43.548;-5.704;2022-09-16T08:28:41;101850.41;;;20.59
70333;BMP280;57747;43.548;-5.704;2022-09-16T08:31:08;101845.75;;;20.77
70333;BMP280;57747;43.548;-5.704;2022-09-16T08:33:43;101847.78;;;20.98
70333;BMP280;57747;43.548;-5.704;2022-09-16T08:38:41;101862.75;;;21.21
70333;BMP280;57747;43.548;-5.704;2022-09-16T08:43:47;101863.72;;;21.26
70333;BMP280;57747;43.548;-5.704;2022-09-16T08:46:24;101863.84;;;21.29
70333;BMP280;57747;43.548;-5.704;2022-09-16T08:51:28;101858.91;;;21.22
70333;BMP280;57747;43.548;-5.704;2022-09-16T08:54:03;101865.53;;;21.13
70333;BMP280;57747;43.548;-5.704;2022-09-16T08:56:35;101871.16;;;21.16
70333;BMP280;57747;43.548;-5.704;2022-09-16T08:59:02;101865.31;;;21.27
70333;BMP280;57747;43.548;-5.704;2022-09-16T09:01:41;101875.03;;;21.45
70333;BMP280;57747;43.548;-5.704;2022-09-16T09:04:08;101878.38;;;21.12
70333;BMP280;57747;43.548;-5.704;2022-09-16T09:12:48;101885.97;;;20.80
70333;BMP280;57747;43.548;-5.704;2022-09-16T09:15:43;101887.88;;;20.97
70333;BMP280;57747;43.548;-5.704;2022-09-16T09:18:27;101885.66;;;20.73
70333;BMP280;57747;43.548;-5.704;2022-09-16T09:23:52;101890.97;;;20.87
70333;BMP280;57747;43.548;-5.704;2022-09-16T09:26:48;101898.47;;;20.99
70333;BMP280;57747;43.548;-5.704;2022-09-16T09:40:48;101895.72;;;21.08
70333;BMP280;57747;43.548;-5.704;2022-09-16T09:43:24;101897.63;;;21.16
70333;BMP280;57747;43.548;-5.704;2022-09-16T09:48:53;101896.16;;;21.18
70333;BMP280;57747;43.548;-5.704;2022-09-16T09:54:48;101904.25;;;21.45
70333;BMP280;57747;43.548;-5.704;2022-09-16T09:56:49;101899.81;;;21.70
70333;BMP280;57747;43.548;-5.704;2022-09-16T10:02:01;101903.25;;;21.79
70333;BMP280;57747;43.548;-5.704;2022-09-16T10:04:39;101895.06;;;21.79
70333;BMP280;57747;43.548;-5.704;2022-09-16T10:07:06;101898.84;;;21.95
70333;BMP280;57747;43.548;-5.704;2022-09-16T10:09:33;101900.06;;;22.07
70333;BMP280;57747;43.548;-5.704;2022-09-16T10:12:01;101897.31;;;22.28
70333;BMP280;57747;43.548;-5.704;2022-09-16T10:14:35;101905.88;;;21.96
70333;BMP280;57747;43.548;-5.704;2022-09-16T10:17:17;101899.91;;;22.03
70333;BMP280;57747;43.548;-5.704;2022-09-16T10:19:59;101908.38;;;21.89
70333;BMP280;57747;43.548;-5.704;2022-09-16T10:22:34;101904.69;;;21.85
70333;BMP280;57747;43.548;-5.704;2022-09-16T10:25:04;101896.09;;;21.74
70333;BMP280;57747;43.548;-5.704;2022-09-16T10:27:35;101891.06;;;21.76
70333;BMP280;57747;43.548;-5.704;2022-09-16T10:30:16;101895.88;;;22.09
70333;BMP280;57747;43.548;-5.704;2022-09-16T10:35:27;101904.56;;;22.03
70333;BMP280;57747;43.548;-5.704;2022-09-16T10:38:02;101902.47;;;21.49
70333;BMP280;57747;43.548;-5.704;2022-09-16T10:40:28;101907.06;;;21.66
70333;BMP280;57747;43.548;-5.704;2022-09-16T10:43:01;101896.56;;;21.97
70333;BMP280;57747;43.548;-5.704;2022-09-16T10:45:30;101907.97;;;21.99
70333;BMP280;57747;43.548;-5.704;2022-09-16T10:48:01;101899.66;;;22.17
70333;BMP280;57747;43.548;-5.704;2022-09-16T10:50:28;101889.75;;;21.83
70333;BMP280;57747;43.548;-5.704;2022-09-16T10:52:54;101903.50;;;21.65
70333;BMP280;57747;43.548;-5.704;2022-09-16T10:55:31;101901.56;;;21.95
70333;BMP280;57747;43.548;-5.704;2022-09-16T10:58:16;101896.13;;;21.95
70333;BMP280;57747;43.548;-5.704;2022-09-16T11:18:52;101896.44;;;21.94
70333;BMP280;57747;43.548;-5.704;2022-09-16T11:26:56;101891.91;;;22.40
70333;BMP280;57747;43.548;-5.704;2022-09-16T11:38:21;101891.41;;;22.47
70333;BMP280;57747;43.548;-5.704;2022-09-16T11:41:02;101891.66;;;22.33
70333;BMP280;57747;43.548;-5.704;2022-09-16T11:52:08;101904.50;;;22.11
70333;BMP280;57747;43.548;-5.704;2022-09-16T11:57:38;101894.03;;;21.92
70333;BMP280;57747;43.548;-5.704;2022-09-16T12:00:20;101891.78;;;22.15
70333;BMP280;57747;43.548;-5.704;2022-09-16T12:03:09;101895.59;;;22.44
70333;BMP280;57747;43.548;-5.704;2022-09-16T12:05:43;101889.97;;;22.62
70333;BMP280;57747;43.548;-5.704;2022-09-16T12:11:18;101881.91;;;22.44
70333;BMP280;57747;43.548;-5.704;2022-09-16T12:13:49;101891.25;;;22.76
70333;BMP280;57747;43.548;-5.704;2022-09-16T12:16:23;101885.25;;;22.95
70333;BMP280;57747;43.548;-5.704;2022-09-16T12:18:56;101880.38;;;23.26
70333;BMP280;57747;43.548;-5.704;2022-09-16T12:21:35;101885.84;;;22.89
70333;BMP280;57747;43.548;-5.704;2022-09-16T12:27:04;101894.09;;;22.68
70333;BMP280;57747;43.548;-5.704;2022-09-16T12:29:59;101889.66;;;22.42
70333;BMP280;57747;43.548;-5.704;2022-09-16T12:32:36;101888.63;;;22.68
70333;BMP280;57747;43.548;-5.704;2022-09-16T12:35:14;101890.59;;;22.92
70333;BMP280;57747;43.548;-5.704;2022-09-16T12:37:50;101889.97;;;23.20
70333;BMP280;57747;43.548;-5.704;2022-09-16T12:40:37;101889.25;;;23.10
70333;BMP280;57747;43.548;-5.704;2022-09-16T12:45:59;101888.63;;;22.68
70333;BMP280;57747;43.548;-5.704;2022-09-16T12:57:09;101888.78;;;22.08
70333;BMP280;57747;43.548;-5.704;2022-09-16T13:00:04;101882.63;;;22.53
70333;BMP280;57747;43.548;-5.704;2022-09-16T13:02:45;101891.25;;;22.76
70333;BMP280;57747;43.548;-5.704;2022-09-16T13:05:19;101891.22;;;22.31
70333;BMP280;57747;43.548;-5.704;2022-09-16T13:07:52;101883.88;;;22.23
70333;BMP280;57747;43.548;-5.704;2022-09-16T13:10:31;101889.44;;;22.47
70333;BMP280;57747;43.548;-5.704;2022-09-16T13:12:59;101893.22;;;22.88
70333;BMP280;57747;43.548;-5.704;2022-09-16T13:15:31;101890.59;;;22.25
70333;BMP280;57747;43.548;-5.704;2022-09-16T13:20:48;101890.50;;;22.34
70333;BMP280;57747;43.548;-5.704;2022-09-16T13:23:43;101881.41;;;22.96
70333;BMP280;57747;43.548;-5.704;2022-09-16T13:26:10;101876.47;;;22.44
70333;BMP280;57747;43.548;-5.704;2022-09-16T13:28:41;101880.75;;;22.33
70333;BMP280;57747;43.548;-5.704;2022-09-16T13:36:29;101873.31;;;23.00
70333;BMP280;57747;43.548;-5.704;2022-09-16T13:39:05;101874.31;;;22.95
70333;BMP280;57747;43.548;-5.704;2022-09-16T13:41:46;101861.31;;;23.66
70333;BMP280;57747;43.548;-5.704;2022-09-16T13:52:34;101852.31;;;23.53
70333;BMP280;57747;43.548;-5.704;2022-09-16T13:55:02;101857.72;;;24.19
70333;BMP280;57747;43.548;-5.704;2022-09-16T14:00:12;101854.47;;;24.01
70333;BMP280;57747;43.548;-5.704;2022-09-16T14:03:10;101848.91;;;23.32
70333;BMP280;57747;43.548;-5.704;2022-09-16T14:11:13;101843.34;;;22.91
70333;BMP280;57747;43.548;-5.704;2022-09-16T14:13:47;101843.31;;;23.65
70333;BMP280;57747;43.548;-5.704;2022-09-16T14:16:21;101832.91;;;23.71
70333;BMP280;57747;43.548;-5.704;2022-09-16T14:21:31;101826.31;;;23.60
70333;BMP280;57747;43.548;-5.704;2022-09-16T14:24:33;101821.69;;;23.35
70333;BMP280;57747;43.548;-5.704;2022-09-16T14:26:59;101819.13;;;22.69
70333;BMP280;57747;43.548;-5.704;2022-09-16T14:29:24;101821.34;;;22.42
70333;BMP280;57747;43.548;-5.704;2022-09-16T14:31:53;101821.63;;;22.28
70333;BMP280;57747;43.548;-5.704;2022-09-16T14:34:35;101816.69;;;22.09
70333;BMP280;57747;43.548;-5.704;2022-09-16T14:37:03;101822.53;;;22.53
70333;BMP280;57747;43.548;-5.704;2022-09-16T14:39:31;101819.03;;;22.32
70333;BMP280;57747;43.548;-5.704;2022-09-16T14:42:00;101816.31;;;22.65
70333;BMP280;57747;43.548;-5.704;2022-09-16T14:44:35;101815.75;;;22.38
70333;BMP280;57747;43.548;-5.704;2022-09-16T14:47:36;101818.50;;;22.96
70333;BMP280;57747;43.548;-5.704;2022-09-16T14:50:19;101816.22;;;22.86
70333;BMP280;57747;43.548;-5.704;2022-09-16T14:53:21;101797.66;;;22.92
70333;BMP280;57747;43.548;-5.704;2022-09-16T14:55:49;101806.03;;;22.74
70333;BMP280;57747;43.548;-5.704;2022-09-16T14:58:15;101804.47;;;22.98
70333;BMP280;57747;43.548;-5.704;2022-09-16T15:00:43;101804.25;;;23.28
70333;BMP280;57747;43.548;-5.704;2022-09-16T15:03:26;101808.88;;;23.52
70333;BMP280;57747;43.548;-5.704;2022-09-16T15:05:54;101795.16;;;24.05
70333;BMP280;57747;43.548;-5.704;2022-09-16T15:08:33;101803.78;;;23.26
70333;BMP280;57747;43.548;-5.704;2022-09-16T15:11:11;101800.81;;;23.31
70333;BMP280;57747;43.548;-5.704;2022-09-16T15:13:44;101795.28;;;23.55
70333;BMP280;57747;43.548;-5.704;2022-09-16T15:16:19;101782.38;;;23.68
70333;BMP280;57747;43.548;-5.704;2022-09-16T15:19:03;101784.94;;;23.77
70333;BMP280;57747;43.548;-5.704;2022-09-16T15:21:34;101786.25;;;23.14
70333;BMP280;57747;43.548;-5.704;2022-09-16T15:24:04;101788.22;;;23.54
70333;BMP280;57747;43.548;-5.704;2022-09-16T15:26:46;101781.78;;;23.34
70333;BMP280;57747;43.548;-5.704;2022-09-16T15:29:27;101784.84;;;23.33
70333;BMP280;57747;43.548;-5.704;2022-09-16T15:32:18;101784.25;;;23.52
70333;BMP280;57747;43.548;-5.704;2022-09-16T15:34:45;101781.38;;;23.08
70333;BMP280;57747;43.548;-5.704;2022-09-16T15:37:33;101780.34;;;23.12
70333;BMP280;57747;43.548;-5.704;2022-09-16T15:43:22;101785.34;;;22.98
70333;BMP280;57747;43.548;-5.704;2022-09-16T15:45:58;101779.63;;;23.03
70333;BMP280;57747;43.548;-5.704;2022-09-16T15:48:29;101790.91;;;22.31
70333;BMP280;57747;43.548;-5.704;2022-09-16T15:51:17;101782.19;;;22.38
70333;BMP280;57747;43.548;-5.704;2022-09-16T15:53:48;101790.03;;;22.39
70333;BMP280;57747;43.548;-5.704;2022-09-16T15:56:39;101782.34;;;22.54
70333;BMP280;57747;43.548;-5.704;2022-09-16T16:02:05;101792.09;;;22.30
70333;BMP280;57747;43.548;-5.704;2022-09-16T16:04:43;101781.91;;;22.18
70333;BMP280;57747;43.548;-5.704;2022-09-16T16:07:08;101785.63;;;22.60
70333;BMP280;57747;43.548;-5.704;2022-09-16T16:09:37;101784.38;;;22.57
70333;BMP280;57747;43.548;-5.704;2022-09-16T16:12:10;101785.00;;;23.00
70333;BMP280;57747;43.548;-5.704;2022-09-16T16:14:37;101784.66;;;23.66
70333;BMP280;57747;43.548;-5.704;2022-09-16T16:17:15;101773.63;;;23.63
70333;BMP280;57747;43.548;-5.704;2022-09-16T16:19:48;101791.50;;;24.01
70333;BMP280;57747;43.548;-5.704;2022-09-16T16:22:14;101782.72;;;24.23
70333;BMP280;57747;43.548;-5.704;2022-09-16T16:24:41;101776.59;;;24.14
70333;BMP280;57747;43.548;-5.704;2022-09-16T16:27:07;101776.66;;;23.73
70333;BMP280;57747;43.548;-5.704;2022-09-16T16:29:33;101774.16;;;23.03
70333;BMP280;57747;43.548;-5.704;2022-09-16T16:32:09;101777.91;;;23.11
70333;BMP280;57747;43.548;-5.704;2022-09-16T16:34:42;101776.31;;;23.10
70333;BMP280;57747;43.548;-5.704;2022-09-16T16:37:12;101778.84;;;22.66
70333;BMP280;57747;43.548;-5.704;2022-09-16T16:39:39;101771.66;;;22.73
70333;BMP280;57747;43.548;-5.704;2022-09-16T16:42:04;101776.09;;;22.66
70333;BMP280;57747;43.548;-5.704;2022-09-16T16:44:31;101775.50;;;22.72
70333;BMP280;57747;43.548;-5.704;2022-09-16T16:46:57;101775.13;;;22.37
70333;BMP280;57747;43.548;-5.704;2022-09-16T16:49:23;101776.28;;;22.48
70333;BMP280;57747;43.548;-5.704;2022-09-16T16:52:03;101776.09;;;21.87
70333;BMP280;57747;43.548;-5.704;2022-09-16T16:54:29;101776.44;;;22.18
70333;BMP280;57747;43.548;-5.704;2022-09-16T16:56:56;101778.72;;;21.95
70333;BMP280;57747;43.548;-5.704;2022-09-16T16:59:23;101778.53;;;22.00
70333;BMP280;57747;43.548;-5.704;2022-09-16T17:01:50;101778.94;;;21.69
70333;BMP280;57747;43.548;-5.704;2022-09-16T17:04:16;101773.13;;;21.71
70333;BMP280;57747;43.548;-5.704;2022-09-16T17:06:42;101777.16;;;21.43
70333;BMP280;57747;43.548;-5.704;2022-09-16T17:09:09;101777.56;;;21.54
70333;BMP280;57747;43.548;-5.704;2022-09-16T17:11:37;101782.47;;;21.40
70333;BMP280;57747;43.548;-5.704;2022-09-16T17:14:13;101777.53;;;21.63
70333;BMP280;57747;43.548;-5.704;2022-09-16T17:16:40;101782.50;;;21.61
70333;BMP280;57747;43.548;-5.704;2022-09-16T17:19:05;101788.06;;;21.43
70333;BMP280;57747;43.548;-5.704;2022-09-16T17:21:32;101783.03;;;21.33
70333;BMP280;57747;43.548;-5.704;2022-09-16T17:23:59;101785.84;;;21.46
70333;BMP280;57747;43.548;-5.704;2022-09-16T17:26:25;101784.31;;;21.27
70333;BMP280;57747;43.548;-5.704;2022-09-16T17:28:52;101782.53;;;21.31
70333;BMP280;57747;43.548;-5.704;2022-09-16T17:31:23;101788.03;;;21.22
70333;BMP280;57747;43.548;-5.704;2022-09-16T17:33:53;101789.50;;;21.20
70333;BMP280;57747;43.548;-5.704;2022-09-16T17:36:20;101777.34;;;21.09